sensor_id;sensor_type;location;lat;lon;timestamp;P1;durP1;ratioP1;P2;durP2;ratioP2
3755;SDS011;1893;52.526;13.360;2023-04-05T00:00:36;4.03;;;3.57;;
3755;SDS011;1893;52.526;13.360;2023-04-05T00:03:01;6.37;;;2.90;;
3755;SDS011;1893;52.526;13.360;2023-04-05T00:05:28;6.00;;;3.00;;
3755;SDS011;1893;52.526;13.360;2023-04-05T00:07:58;4.03;;;3.23;;
3755;SDS011;1893;52.526;13.360;2023-04-05T00:10:25;4.27;;;2.77;;
3755;SDS011;1893;52.526;13.360;2023-04-05T00:12:52;5.53;;;2.67;;
3755;SDS011;1893;52.526;13.360;2023-04-05T00:15:17;3.20;;;2.37;;
3755;SDS011;1893;52.526;13.360;2023-04-05T00:17:43;8.63;;;3.50;;
3755;SDS011;1893;52.526;13.360;2023-04-05T00:20:09;7.37;;;3.80;;
3755;SDS011;1893;52.526;13.360;2023-04-05T00:22:36;6.97;;;3.60;;
3755;SDS011;1893;52.526;13.360;2023-04-05T00:25:02;6.03;;;3.60;;
3755;SDS011;1893;52.526;13.360;2023-04-05T00:27:29;5.20;;;3.17;;
3755;SDS011;1893;52.526;13.360;2023-04-05T00:29:55;5.10;;;3.57;;
3755;SDS011;1893;52.526;13.360;2023-04-05T00:32:20;5.77;;;3.33;;
3755;SDS011;1893;52.526;13.360;2023-04-05T00:34:46;9.47;;;4.03;;
3755;SDS011;1893;52.526;13.360;2023-04-05T00:37:12;6.10;;;3.50;;
3755;SDS011;1893;52.526;13.360;2023-04-05T00:39:38;7.33;;;3.33;;
3755;SDS011;1893;52.526;13.360;2023-04-05T00:42:04;3.13;;;2.77;;
3755;SDS011;1893;52.526;13.360;2023-04-05T00:44:30;7.40;;;4.00;;
3755;SDS011;1893;52.526;13.360;2023-04-05T00:47:08;7.50;;;4.57;;
3755;SDS011;1893;52.526;13.360;2023-04-05T00:49:33;7.43;;;3.60;;
3755;SDS011;1893;52.526;13.360;2023-04-05T00:52:00;10.40;;;3.90;;
3755;SDS011;1893;52.526;13.360;2023-04-05T00:54:27;9.93;;;3.63;;
3755;SDS011;1893;52.526;13.360;2023-04-05T00:56:56;6.83;;;3.60;;
3755;SDS011;1893;52.526;13.360;2023-04-05T00:59:23;6.23;;;3.60;;
3755;SDS011;1893;52.526;13.360;2023-04-05T01:02:00;5.07;;;3.00;;
3755;SDS011;1893;52.526;13.360;2023-04-05T01:04:32;6.17;;;3.33;;
3755;SDS011;1893;52.526;13.360;2023-04-05T01:07:16;7.80;;;3.23;;
3755;SDS011;1893;52.526;13.360;2023-04-05T01:09:54;6.97;;;3.47;;
3755;SDS011;1893;52.526;13.360;2023-04-05T01:12:22;10.47;;;3.47;;
3755;SDS011;1893;52.526;13.360;2023-04-05T01:14:52;5.90;;;3.80;;
3755;SDS011;1893;52.526;13.360;2023-04-05T01:17:19;4.80;;;2.40;;
3755;SDS011;1893;52.526;13.360;2023-04-05T01:19:56;12.30;;;4.27;;
3755;SDS011;1893;52.526;13.360;2023-04-05T01:33:57;6.13;;;3.10;;
3755;SDS011;1893;52.526;13.360;2023-04-05T01:39:20;4.87;;;2.53;;
3755;SDS011;1893;52.526;13.360;2023-04-05T01:41:47;4.83;;;3.00;;
3755;SDS011;1893;52.526;13.360;2023-04-05T01:44:13;5.40;;;2.90;;
3755;SDS011;1893;52.526;13.360;2023-04-05T01:46:38;8.03;;;4.33;;
3755;SDS011;1893;52.526;13.360;2023-04-05T01:49:04;7.83;;;2.97;;
3755;SDS011;1893;52.526;13.360;2023-04-05T01:51:30;3.17;;;2.27;;
3755;SDS011;1893;52.526;13.360;2023-04-05T01:53:56;8.17;;;3.37;;
3755;SDS011;1893;52.526;13.360;2023-04-05T01:56:22;5.50;;;2.43;;
3755;SDS011;1893;52.526;13.360;2023-04-05T01:58:47;9.77;;;3.33;;
3755;SDS011;1893;52.526;13.360;2023-04-05T02:01:13;5.60;;;3.10;;
3755;SDS011;1893;52.526;13.360;2023-04-05T02:03:39;5.83;;;3.03;;
3755;SDS011;1893;52.526;13.360;2023-04-05T02:06:04;6.43;;;2.87;;
3755;SDS011;1893;52.526;13.360;2023-04-05T02:08:30;5.57;;;3.20;;
3755;SDS011;1893;52.526;13.360;2023-04-05T02:10:56;6.77;;;3.10;;
3755;SDS011;1893;52.526;13.360;2023-04-05T02:13:21;8.10;;;2.80;;
3755;SDS011;1893;52.526;13.360;2023-04-05T02:15:48;5.07;;;3.33;;
3755;SDS011;1893;52.526;13.360;2023-04-05T02:18:14;5.87;;;2.80;;
3755;SDS011;1893;52.526;13.360;2023-04-05T02:20:40;3.30;;;2.57;;
3755;SDS011;1893;52.526;13.360;2023-04-05T02:23:06;3.10;;;2.90;;
3755;SDS011;1893;52.526;13.360;2023-04-05T02:25:32;4.47;;;2.77;;
3755;SDS011;1893;52.526;13.360;2023-04-05T02:27:58;3.10;;;2.57;;
3755;SDS011;1893;52.526;13.360;2023-04-05T02:30:23;6.70;;;3.13;;
3755;SDS011;1893;52.526;13.360;2023-04-05T02:32:52;4.13;;;3.10;;
3755;SDS011;1893;52.526;13.360;2023-04-05T02:35:19;7.63;;;2.87;;
3755;SDS011;1893;52.526;13.360;2023-04-05T02:37:45;9.53;;;3.60;;
3755;SDS011;1893;52.526;13.360;2023-04-05T02:40:12;11.30;;;3.67;;
3755;SDS011;1893;52.526;13.360;2023-04-05T02:42:39;5.37;;;3.47;;
3755;SDS011;1893;52.526;13.360;2023-04-05T02:45:05;7.23;;;3.80;;
3755;SDS011;1893;52.526;13.360;2023-04-05T02:47:32;4.63;;;3.50;;
3755;SDS011;1893;52.526;13.360;2023-04-05T02:49:58;8.97;;;3.97;;
3755;SDS011;1893;52.526;13.360;2023-04-05T02:52:24;10.00;;;3.97;;
3755;SDS011;1893;52.526;13.360;2023-04-05T02:54:49;6.87;;;3.37;;
3755;SDS011;1893;52.526;13.360;2023-04-05T02:57:15;7.90;;;3.80;;
3755;SDS011;1893;52.526;13.360;2023-04-05T02:59:42;8.57;;;3.57;;
3755;SDS011;1893;52.526;13.360;2023-04-05T03:02:08;4.07;;;3.00;;
3755;SDS011;1893;52.526;13.360;2023-04-05T03:04:34;4.97;;;3.10;;
3755;SDS011;1893;52.526;13.360;2023-04-05T03:07:01;11.07;;;3.67;;
3755;SDS011;1893;52.526;13.360;2023-04-05T03:09:30;7.57;;;3.00;;
3755;SDS011;1893;52.526;13.360;2023-04-05T03:12:00;4.03;;;2.77;;
3755;SDS011;1893;52.526;13.360;2023-04-05T03:14:28;4.20;;;2.60;;
3755;SDS011;1893;52.526;13.360;2023-04-05T03:16:54;8.43;;;2.50;;
3755;SDS011;1893;52.526;13.360;2023-04-05T03:19:20;4.40;;;2.90;;
3755;SDS011;1893;52.526;13.360;2023-04-05T03:21:46;7.37;;;2.63;;
3755;SDS011;1893;52.526;13.360;2023-04-05T03:24:13;4.93;;;2.63;;
3755;SDS011;1893;52.526;13.360;2023-04-05T03:26:38;4.07;;;2.63;;
3755;SDS011;1893;52.526;13.360;2023-04-05T03:29:04;6.90;;;2.97;;
3755;SDS011;1893;52.526;13.360;2023-04-05T03:31:30;5.60;;;2.53;;
3755;SDS011;1893;52.526;13.360;2023-04-05T03:33:56;5.70;;;3.50;;
3755;SDS011;1893;52.526;13.360;2023-04-05T03:36:22;5.77;;;3.33;;
3755;SDS011;1893;52.526;13.360;2023-04-05T03:38:47;8.37;;;3.87;;
3755;SDS011;1893;52.526;13.360;2023-04-05T03:41:15;11.63;;;4.03;;
3755;SDS011;1893;52.526;13.360;2023-04-05T03:43:41;9.00;;;3.37;;
3755;SDS011;1893;52.526;13.360;2023-04-05T03:46:06;16.03;;;4.70;;
3755;SDS011;1893;52.526;13.360;2023-04-05T03:48:32;7.57;;;4.10;;
3755;SDS011;1893;52.526;13.360;2023-04-05T03:50:58;12.73;;;3.10;;
3755;SDS011;1893;52.526;13.360;2023-04-05T03:53:23;7.40;;;3.60;;
3755;SDS011;1893;52.526;13.360;2023-04-05T03:55:50;6.53;;;2.60;;
3755;SDS011;1893;52.526;13.360;2023-04-05T03:58:18;9.57;;;2.80;;
3755;SDS011;1893;52.526;13.360;2023-04-05T04:00:43;8.03;;;3.00;;
3755;SDS011;1893;52.526;13.360;2023-04-05T04:03:09;5.63;;;2.73;;
3755;SDS011;1893;52.526;13.360;2023-04-05T04:05:35;4.00;;;2.40;;
3755;SDS011;1893;52.526;13.360;2023-04-05T04:08:03;7.27;;;3.03;;
3755;SDS011;1893;52.526;13.360;2023-04-05T04:10:30;8.03;;;3.13;;
3755;SDS011;1893;52.526;13.360;2023-04-05T04:12:56;12.70;;;3.13;;
3755;SDS011;1893;52.526;13.360;2023-04-05T04:15:22;9.60;;;3.90;;
3755;SDS011;1893;52.526;13.360;2023-04-05T04:17:47;8.80;;;3.83;;
3755;SDS011;1893;52.526;13.360;2023-04-05T04:20:13;12.67;;;4.90;;
3755;SDS011;1893;52.526;13.360;2023-04-05T04:22:39;14.57;;;4.80;;
3755;SDS011;1893;52.526;13.360;2023-04-05T04:27:33;12.60;;;6.07;;
3755;SDS011;1893;52.526;13.360;2023-04-05T04:30:07;11.67;;;5.07;;
3755;SDS011;1893;52.526;13.360;2023-04-05T04:32:34;13.13;;;5.37;;
3755;SDS011;1893;52.526;13.360;2023-04-05T04:35:17;14.27;;;5.30;;
3755;SDS011;1893;52.526;13.360;2023-04-05T04:37:49;14.50;;;5.33;;
3755;SDS011;1893;52.526;13.360;2023-04-05T04:40:19;12.70;;;5.67;;
3755;SDS011;1893;52.526;13.360;2023-04-05T04:42:46;10.80;;;5.40;;
3755;SDS011;1893;52.526;13.360;2023-04-05T04:45:13;14.97;;;5.60;;
3755;SDS011;1893;52.526;13.360;2023-04-05T04:47:41;11.30;;;5.63;;
3755;SDS011;1893;52.526;13.360;2023-04-05T04:50:07;16.40;;;5.37;;
3755;SDS011;1893;52.526;13.360;2023-04-05T04:52:34;15.47;;;5.67;;
3755;SDS011;1893;52.526;13.360;2023-04-05T04:55:00;10.90;;;4.70;;
3755;SDS011;1893;52.526;13.360;2023-04-05T04:57:29;14.00;;;5.57;;
3755;SDS011;1893;52.526;13.360;2023-04-05T04:59:56;12.73;;;4.80;;
3755;SDS011;1893;52.526;13.360;2023-04-05T05:02:24;8.90;;;3.97;;
3755;SDS011;1893;52.526;13.360;2023-04-05T05:04:50;6.43;;;3.50;;
3755;SDS011;1893;52.526;13.360;2023-04-05T05:07:16;11.30;;;3.93;;
3755;SDS011;1893;52.526;13.360;2023-04-05T05:09:42;9.13;;;3.90;;
3755;SDS011;1893;52.526;13.360;2023-04-05T05:12:08;9.20;;;3.37;;
3755;SDS011;1893;52.526;13.360;2023-04-05T05:14:34;7.93;;;2.77;;
3755;SDS011;1893;52.526;13.360;2023-04-05T05:16:59;8.13;;;3.47;;
3755;SDS011;1893;52.526;13.360;2023-04-05T05:19:25;8.93;;;3.50;;
3755;SDS011;1893;52.526;13.360;2023-04-05T05:21:51;10.90;;;3.23;;
3755;SDS011;1893;52.526;13.360;2023-04-05T05:24:18;9.00;;;2.70;;
3755;SDS011;1893;52.526;13.360;2023-04-05T05:26:44;9.03;;;3.50;;
3755;SDS011;1893;52.526;13.360;2023-04-05T05:29:09;6.97;;;3.07;;
3755;SDS011;1893;52.526;13.360;2023-04-05T05:31:35;4.80;;;2.63;;
3755;SDS011;1893;52.526;13.360;2023-04-05T05:34:01;3.80;;;2.27;;
3755;SDS011;1893;52.526;13.360;2023-04-05T05:36:27;8.87;;;2.83;;
3755;SDS011;1893;52.526;13.360;2023-04-05T05:38:52;12.43;;;5.60;;
3755;SDS011;1893;52.526;13.360;2023-04-05T05:41:18;5.57;;;2.80;;
3755;SDS011;1893;52.526;13.360;2023-04-05T05:43:45;15.67;;;7.40;;
3755;SDS011;1893;52.526;13.360;2023-04-05T05:46:11;12.73;;;3.40;;
3755;SDS011;1893;52.526;13.360;2023-04-05T05:48:37;5.27;;;2.70;;
3755;SDS011;1893;52.526;13.360;2023-04-05T05:51:03;7.60;;;2.70;;
3755;SDS011;1893;52.526;13.360;2023-04-05T05:53:38;5.17;;;2.40;;
3755;SDS011;1893;52.526;13.360;2023-04-05T05:56:04;3.33;;;2.40;;
3755;SDS011;1893;52.526;13.360;2023-04-05T05:58:30;6.80;;;2.90;;
3755;SDS011;1893;52.526;13.360;2023-04-05T06:00:56;6.03;;;2.10;;
3755;SDS011;1893;52.526;13.360;2023-04-05T06:03:22;5.97;;;2.70;;
3755;SDS011;1893;52.526;13.360;2023-04-05T06:05:58;5.70;;;2.90;;
3755;SDS011;1893;52.526;13.360;2023-04-05T06:08:27;9.30;;;3.30;;
3755;SDS011;1893;52.526;13.360;2023-04-05T06:10:52;5.97;;;2.97;;
3755;SDS011;1893;52.526;13.360;2023-04-05T06:13:18;9.10;;;2.27;;
3755;SDS011;1893;52.526;13.360;2023-04-05T06:15:46;4.93;;;3.20;;
3755;SDS011;1893;52.526;13.360;2023-04-05T06:18:13;6.60;;;2.70;;
3755;SDS011;1893;52.526;13.360;2023-04-05T06:20:39;4.53;;;2.30;;
3755;SDS011;1893;52.526;13.360;2023-04-05T06:23:07;9.70;;;3.63;;
3755;SDS011;1893;52.526;13.360;2023-04-05T06:25:32;4.47;;;2.90;;
3755;SDS011;1893;52.526;13.360;2023-04-05T06:27:58;10.63;;;3.00;;
3755;SDS011;1893;52.526;13.360;2023-04-05T06:30:24;4.83;;;3.07;;
3755;SDS011;1893;52.526;13.360;2023-04-05T06:32:50;5.23;;;2.30;;
3755;SDS011;1893;52.526;13.360;2023-04-05T06:35:21;3.93;;;2.90;;
3755;SDS011;1893;52.526;13.360;2023-04-05T06:37:47;4.27;;;2.90;;
3755;SDS011;1893;52.526;13.360;2023-04-05T06:40:13;5.70;;;2.70;;
3755;SDS011;1893;52.526;13.360;2023-04-05T06:42:39;7.77;;;3.00;;
3755;SDS011;1893;52.526;13.360;2023-04-05T06:45:05;8.80;;;3.10;;
3755;SDS011;1893;52.526;13.360;2023-04-05T06:47:37;7.00;;;3.40;;
3755;SDS011;1893;52.526;13.360;2023-04-05T06:50:07;6.70;;;2.90;;
3755;SDS011;1893;52.526;13.360;2023-04-05T06:52:34;8.43;;;2.80;;
3755;SDS011;1893;52.526;13.360;2023-04-05T06:54:59;5.93;;;3.10;;
3755;SDS011;1893;52.526;13.360;2023-04-05T06:57:25;3.93;;;3.00;;
3755;SDS011;1893;52.526;13.360;2023-04-05T06:59:51;9.20;;;3.90;;
3755;SDS011;1893;52.526;13.360;2023-04-05T07:02:18;9.27;;;3.93;;
3755;SDS011;1893;52.526;13.360;2023-04-05T07:04:44;8.27;;;2.80;;
3755;SDS011;1893;52.526;13.360;2023-04-05T07:07:11;6.30;;;2.90;;
3755;SDS011;1893;52.526;13.360;2023-04-05T07:09:37;7.53;;;4.03;;
3755;SDS011;1893;52.526;13.360;2023-04-05T07:12:02;5.57;;;3.63;;
3755;SDS011;1893;52.526;13.360;2023-04-05T07:14:30;8.73;;;4.17;;
3755;SDS011;1893;52.526;13.360;2023-04-05T07:16:56;7.23;;;3.90;;
3755;SDS011;1893;52.526;13.360;2023-04-05T07:19:22;7.60;;;3.10;;
3755;SDS011;1893;52.526;13.360;2023-04-05T07:21:48;6.27;;;3.60;;
3755;SDS011;1893;52.526;13.360;2023-04-05T07:24:13;7.00;;;3.30;;
3755;SDS011;1893;52.526;13.360;2023-04-05T07:26:39;7.83;;;4.30;;
3755;SDS011;1893;52.526;13.360;2023-04-05T07:29:05;3.97;;;3.37;;
3755;SDS011;1893;52.526;13.360;2023-04-05T07:31:32;11.43;;;3.70;;
3755;SDS011;1893;52.526;13.360;2023-04-05T07:33:58;8.30;;;3.50;;
3755;SDS011;1893;52.526;13.360;2023-04-05T07:36:24;9.43;;;4.37;;
3755;SDS011;1893;52.526;13.360;2023-04-05T07:38:51;8.17;;;3.93;;
3755;SDS011;1893;52.526;13.360;2023-04-05T07:41:19;10.83;;;4.27;;
3755;SDS011;1893;52.526;13.360;2023-04-05T07:43:47;9.07;;;4.13;;
3755;SDS011;1893;52.526;13.360;2023-04-05T07:46:13;11.07;;;5.00;;
3755;SDS011;1893;52.526;13.360;2023-04-05T07:48:38;8.30;;;4.70;;
3755;SDS011;1893;52.526;13.360;2023-04-05T07:51:04;11.33;;;4.70;;
3755;SDS011;1893;52.526;13.360;2023-04-05T07:53:31;11.37;;;5.10;;
3755;SDS011;1893;52.526;13.360;2023-04-05T07:55:57;6.77;;;4.40;;
3755;SDS011;1893;52.526;13.360;2023-04-05T07:58:23;7.60;;;4.23;;
3755;SDS011;1893;52.526;13.360;2023-04-05T08:00:49;6.50;;;3.93;;
3755;SDS011;1893;52.526;13.360;2023-04-05T08:03:17;6.80;;;4.47;;
3755;SDS011;1893;52.526;13.360;2023-04-05T08:05:42;4.33;;;3.60;;
3755;SDS011;1893;52.526;13.360;2023-04-05T08:08:08;6.73;;;3.97;;
3755;SDS011;1893;52.526;13.360;2023-04-05T08:10:38;8.83;;;4.70;;
3755;SDS011;1893;52.526;13.360;2023-04-05T08:13:04;8.03;;;4.10;;
3755;SDS011;1893;52.526;13.360;2023-04-05T08:15:31;6.67;;;4.57;;
3755;SDS011;1893;52.526;13.360;2023-04-05T08:17:57;6.40;;;3.93;;
3755;SDS011;1893;52.526;13.360;2023-04-05T08:20:23;7.00;;;4.00;;
3755;SDS011;1893;52.526;13.360;2023-04-05T08:22:49;10.33;;;4.77;;
3755;SDS011;1893;52.526;13.360;2023-04-05T08:25:15;6.83;;;4.27;;
3755;SDS011;1893;52.526;13.360;2023-04-05T08:27:40;5.97;;;4.17;;
3755;SDS011;1893;52.526;13.360;2023-04-05T08:30:06;10.40;;;4.30;;
3755;SDS011;1893;52.526;13.360;2023-04-05T08:32:33;6.77;;;3.97;;
3755;SDS011;1893;52.526;13.360;2023-04-05T08:34:59;6.43;;;3.83;;
3755;SDS011;1893;52.526;13.360;2023-04-05T08:37:25;5.20;;;3.40;;
3755;SDS011;1893;52.526;13.360;2023-04-05T08:39:51;4.80;;;3.57;;
3755;SDS011;1893;52.526;13.360;2023-04-05T08:42:17;9.13;;;3.93;;
3755;SDS011;1893;52.526;13.360;2023-04-05T08:44:49;8.17;;;4.30;;
3755;SDS011;1893;52.526;13.360;2023-04-05T08:47:19;6.40;;;3.53;;
3755;SDS011;1893;52.526;13.360;2023-04-05T08:49:47;7.07;;;4.10;;
3755;SDS011;1893;52.526;13.360;2023-04-05T08:52:13;7.77;;;4.87;;
3755;SDS011;1893;52.526;13.360;2023-04-05T08:54:38;11.23;;;4.60;;
3755;SDS011;1893;52.526;13.360;2023-04-05T08:57:04;6.70;;;3.47;;
3755;SDS011;1893;52.526;13.360;2023-04-05T08:59:31;7.03;;;4.23;;
3755;SDS011;1893;52.526;13.360;2023-04-05T09:02:00;7.17;;;4.43;;
3755;SDS011;1893;52.526;13.360;2023-04-05T09:04:31;7.70;;;3.70;;
3755;SDS011;1893;52.526;13.360;2023-04-05T09:07:03;7.57;;;3.77;;
3755;SDS011;1893;52.526;13.360;2023-04-05T09:09:32;7.53;;;3.80;;
3755;SDS011;1893;52.526;13.360;2023-04-05T09:12:04;4.60;;;4.03;;
3755;SDS011;1893;52.526;13.360;2023-04-05T09:14:33;5.97;;;3.70;;
3755;SDS011;1893;52.526;13.360;2023-04-05T09:17:01;6.50;;;3.87;;
3755;SDS011;1893;52.526;13.360;2023-04-05T09:19:28;7.50;;;3.67;;
3755;SDS011;1893;52.526;13.360;2023-04-05T09:22:00;5.87;;;4.00;;
3755;SDS011;1893;52.526;13.360;2023-04-05T09:24:34;7.27;;;4.27;;
3755;SDS011;1893;52.526;13.360;2023-04-05T09:27:10;4.40;;;3.30;;
3755;SDS011;1893;52.526;13.360;2023-04-05T09:29:41;7.30;;;3.27;;
3755;SDS011;1893;52.526;13.360;2023-04-05T09:32:08;5.47;;;3.63;;
3755;SDS011;1893;52.526;13.360;2023-04-05T09:34:35;4.10;;;3.70;;
3755;SDS011;1893;52.526;13.360;2023-04-05T09:37:01;5.17;;;3.77;;
3755;SDS011;1893;52.526;13.360;2023-04-05T09:39:35;5.83;;;3.60;;
3755;SDS011;1893;52.526;13.360;2023-04-05T09:42:10;7.93;;;4.00;;
3755;SDS011;1893;52.526;13.360;2023-04-05T09:44:48;8.10;;;4.30;;
3755;SDS011;1893;52.526;13.360;2023-04-05T09:47:17;5.53;;;3.20;;
3755;SDS011;1893;52.526;13.360;2023-04-05T09:49:44;5.30;;;3.80;;
3755;SDS011;1893;52.526;13.360;2023-04-05T09:52:25;9.20;;;5.20;;
3755;SDS011;1893;52.526;13.360;2023-04-05T09:54:54;9.13;;;4.80;;
3755;SDS011;1893;52.526;13.360;2023-04-05T09:57:22;5.93;;;3.60;;
3755;SDS011;1893;52.526;13.360;2023-04-05T09:59:51;5.83;;;3.20;;
3755;SDS011;1893;52.526;13.360;2023-04-05T10:02:17;8.30;;;3.20;;
3755;SDS011;1893;52.526;13.360;2023-04-05T10:04:44;5.07;;;4.10;;
3755;SDS011;1893;52.526;13.360;2023-04-05T10:07:12;4.87;;;3.77;;
3755;SDS011;1893;52.526;13.360;2023-04-05T10:09:39;6.07;;;4.07;;
3755;SDS011;1893;52.526;13.360;2023-04-05T10:12:06;3.57;;;3.27;;
3755;SDS011;1893;52.526;13.360;2023-04-05T10:14:33;6.20;;;4.00;;
3755;SDS011;1893;52.526;13.360;2023-04-05T10:17:22;6.83;;;4.17;;
3755;SDS011;1893;52.526;13.360;2023-04-05T10:22:56;7.20;;;4.23;;
3755;SDS011;1893;52.526;13.360;2023-04-05T10:28:17;5.83;;;4.17;;
3755;SDS011;1893;52.526;13.360;2023-04-05T10:36:12;6.20;;;3.87;;
3755;SDS011;1893;52.526;13.360;2023-04-05T10:41:33;8.70;;;3.53;;
3755;SDS011;1893;52.526;13.360;2023-04-05T10:44:01;5.00;;;3.97;;
3755;SDS011;1893;52.526;13.360;2023-04-05T10:46:29;6.90;;;4.10;;
3755;SDS011;1893;52.526;13.360;2023-04-05T10:51:30;8.97;;;3.97;;
3755;SDS011;1893;52.526;13.360;2023-04-05T10:53:58;4.00;;;3.60;;
3755;SDS011;1893;52.526;13.360;2023-04-05T10:56:24;8.53;;;4.23;;
3755;SDS011;1893;52.526;13.360;2023-04-05T10:58:52;7.30;;;3.33;;
3755;SDS011;1893;52.526;13.360;2023-04-05T11:01:19;5.70;;;3.63;;
3755;SDS011;1893;52.526;13.360;2023-04-05T11:03:46;4.93;;;3.63;;
3755;SDS011;1893;52.526;13.360;2023-04-05T11:06:16;3.40;;;3.03;;
3755;SDS011;1893;52.526;13.360;2023-04-05T11:08:42;4.13;;;3.13;;
3755;SDS011;1893;52.526;13.360;2023-04-05T11:11:09;4.70;;;3.30;;
3755;SDS011;1893;52.526;13.360;2023-04-05T11:13:49;6.47;;;4.17;;
3755;SDS011;1893;52.526;13.360;2023-04-05T11:16:15;5.87;;;3.27;;
3755;SDS011;1893;52.526;13.360;2023-04-05T11:18:45;4.60;;;3.40;;
3755;SDS011;1893;52.526;13.360;2023-04-05T11:21:11;5.87;;;3.07;;
3755;SDS011;1893;52.526;13.360;2023-04-05T11:24:00;5.10;;;2.90;;
3755;SDS011;1893;52.526;13.360;2023-04-05T11:29:08;7.37;;;3.40;;
3755;SDS011;1893;52.526;13.360;2023-04-05T11:31:35;4.30;;;3.47;;
3755;SDS011;1893;52.526;13.360;2023-04-05T11:34:04;7.30;;;3.83;;
3755;SDS011;1893;52.526;13.360;2023-04-05T11:36:43;4.90;;;3.57;;
3755;SDS011;1893;52.526;13.360;2023-04-05T11:41:46;4.40;;;2.80;;
3755;SDS011;1893;52.526;13.360;2023-04-05T11:44:17;5.90;;;3.20;;
3755;SDS011;1893;52.526;13.360;2023-04-05T11:46:44;5.50;;;3.40;;
3755;SDS011;1893;52.526;13.360;2023-04-05T11:49:11;8.03;;;4.07;;
3755;SDS011;1893;52.526;13.360;2023-04-05T11:51:38;5.57;;;3.50;;
3755;SDS011;1893;52.526;13.360;2023-04-05T11:54:06;4.43;;;4.03;;
3755;SDS011;1893;52.526;13.360;2023-04-05T11:56:32;3.83;;;3.13;;
3755;SDS011;1893;52.526;13.360;2023-04-05T11:58:58;4.70;;;3.07;;
3755;SDS011;1893;52.526;13.360;2023-04-05T12:01:24;6.63;;;3.40;;
3755;SDS011;1893;52.526;13.360;2023-04-05T12:03:53;3.90;;;2.33;;
3755;SDS011;1893;52.526;13.360;2023-04-05T12:06:23;4.37;;;2.90;;
3755;SDS011;1893;52.526;13.360;2023-04-05T12:08:50;5.93;;;2.87;;
3755;SDS011;1893;52.526;13.360;2023-04-05T12:13:56;2.30;;;2.10;;
3755;SDS011;1893;52.526;13.360;2023-04-05T12:16:22;5.03;;;2.40;;
3755;SDS011;1893;52.526;13.360;2023-04-05T12:18:52;4.07;;;2.57;;
3755;SDS011;1893;52.526;13.360;2023-04-05T12:21:19;5.80;;;2.90;;
3755;SDS011;1893;52.526;13.360;2023-04-05T12:23:45;7.07;;;2.50;;
3755;SDS011;1893;52.526;13.360;2023-04-05T12:26:11;5.60;;;2.60;;
3755;SDS011;1893;52.526;13.360;2023-04-05T12:28:57;4.30;;;2.60;;
3755;SDS011;1893;52.526;13.360;2023-04-05T12:34:09;3.37;;;2.30;;
3755;SDS011;1893;52.526;13.360;2023-04-05T12:36:36;3.20;;;2.00;;
3755;SDS011;1893;52.526;13.360;2023-04-05T12:39:07;4.03;;;2.20;;
3755;SDS011;1893;52.526;13.360;2023-04-05T12:41:34;3.13;;;2.50;;
3755;SDS011;1893;52.526;13.360;2023-04-05T12:44:04;3.83;;;2.40;;
3755;SDS011;1893;52.526;13.360;2023-04-05T12:46:39;3.00;;;1.90;;
3755;SDS011;1893;52.526;13.360;2023-04-05T12:49:08;5.50;;;2.87;;
3755;SDS011;1893;52.526;13.360;2023-04-05T12:51:35;4.90;;;2.53;;
3755;SDS011;1893;52.526;13.360;2023-04-05T12:54:06;6.13;;;3.77;;
3755;SDS011;1893;52.526;13.360;2023-04-05T12:56:31;2.50;;;2.30;;
3755;SDS011;1893;52.526;13.360;2023-04-05T12:58:57;4.10;;;2.33;;
3755;SDS011;1893;52.526;13.360;2023-04-05T13:01:23;2.80;;;2.17;;
3755;SDS011;1893;52.526;13.360;2023-04-05T13:03:49;5.40;;;2.40;;
3755;SDS011;1893;52.526;13.360;2023-04-05T13:06:15;3.97;;;2.23;;
3755;SDS011;1893;52.526;13.360;2023-04-05T13:08:41;3.10;;;2.30;;
3755;SDS011;1893;52.526;13.360;2023-04-05T13:11:06;4.13;;;2.50;;
3755;SDS011;1893;52.526;13.360;2023-04-05T13:13:32;8.83;;;2.30;;
3755;SDS011;1893;52.526;13.360;2023-04-05T13:15:58;2.83;;;2.40;;
3755;SDS011;1893;52.526;13.360;2023-04-05T13:18:24;3.17;;;2.87;;
3755;SDS011;1893;52.526;13.360;2023-04-05T13:20:50;4.27;;;2.70;;
3755;SDS011;1893;52.526;13.360;2023-04-05T13:23:15;3.20;;;2.40;;
3755;SDS011;1893;52.526;13.360;2023-04-05T13:25:41;10.93;;;3.27;;
3755;SDS011;1893;52.526;13.360;2023-04-05T13:28:09;5.90;;;3.10;;
3755;SDS011;1893;52.526;13.360;2023-04-05T13:30:35;2.93;;;2.30;;
3755;SDS011;1893;52.526;13.360;2023-04-05T13:33:01;4.03;;;2.70;;
3755;SDS011;1893;52.526;13.360;2023-04-05T13:35:28;3.70;;;2.57;;
3755;SDS011;1893;52.526;13.360;2023-04-05T13:37:54;5.30;;;3.00;;
3755;SDS011;1893;52.526;13.360;2023-04-05T13:40:19;3.20;;;2.90;;
3755;SDS011;1893;52.526;13.360;2023-04-05T13:42:45;4.53;;;2.90;;
3755;SDS011;1893;52.526;13.360;2023-04-05T13:45:11;5.47;;;2.57;;
3755;SDS011;1893;52.526;13.360;2023-04-05T13:47:37;4.83;;;2.57;;
3755;SDS011;1893;52.526;13.360;2023-04-05T13:50:03;6.30;;;2.60;;
3755;SDS011;1893;52.526;13.360;2023-04-05T13:52:29;2.80;;;2.43;;
3755;SDS011;1893;52.526;13.360;2023-04-05T13:54:55;10.73;;;2.70;;
3755;SDS011;1893;52.526;13.360;2023-04-05T13:57:20;3.00;;;2.70;;
3755;SDS011;1893;52.526;13.360;2023-04-05T13:59:46;4.30;;;1.87;;
3755;SDS011;1893;52.526;13.360;2023-04-05T14:02:11;5.60;;;2.90;;
3755;SDS011;1893;52.526;13.360;2023-04-05T14:04:38;4.00;;;2.90;;
3755;SDS011;1893;52.526;13.360;2023-04-05T14:07:07;3.73;;;3.00;;
3755;SDS011;1893;52.526;13.360;2023-04-05T14:09:33;2.60;;;2.20;;
3755;SDS011;1893;52.526;13.360;2023-04-05T14:12:02;4.60;;;2.60;;
3755;SDS011;1893;52.526;13.360;2023-04-05T14:14:28;3.77;;;2.43;;
3755;SDS011;1893;52.526;13.360;2023-04-05T14:16:54;3.90;;;2.47;;
3755;SDS011;1893;52.526;13.360;2023-04-05T14:19:20;4.43;;;2.30;;
3755;SDS011;1893;52.526;13.360;2023-04-05T14:21:46;5.70;;;2.27;;
3755;SDS011;1893;52.526;13.360;2023-04-05T14:24:12;7.73;;;2.63;;
3755;SDS011;1893;52.526;13.360;2023-04-05T14:26:38;4.07;;;2.60;;
3755;SDS011;1893;52.526;13.360;2023-04-05T14:29:04;3.20;;;2.87;;
3755;SDS011;1893;52.526;13.360;2023-04-05T14:31:30;3.90;;;2.63;;
3755;SDS011;1893;52.526;13.360;2023-04-05T14:33:56;4.30;;;2.60;;
3755;SDS011;1893;52.526;13.360;2023-04-05T14:36:22;2.83;;;2.33;;
3755;SDS011;1893;52.526;13.360;2023-04-05T14:38:47;3.23;;;2.50;;
3755;SDS011;1893;52.526;13.360;2023-04-05T14:41:13;6.67;;;2.40;;
3755;SDS011;1893;52.526;13.360;2023-04-05T14:43:39;5.53;;;3.20;;
3755;SDS011;1893;52.526;13.360;2023-04-05T14:46:05;3.63;;;2.77;;
3755;SDS011;1893;52.526;13.360;2023-04-05T14:48:31;3.00;;;2.70;;
3755;SDS011;1893;52.526;13.360;2023-04-05T14:50:58;2.57;;;1.97;;
3755;SDS011;1893;52.526;13.360;2023-04-05T14:53:24;4.00;;;2.87;;
3755;SDS011;1893;52.526;13.360;2023-04-05T14:55:50;4.33;;;2.90;;
3755;SDS011;1893;52.526;13.360;2023-04-05T14:58:16;4.53;;;3.00;;
3755;SDS011;1893;52.526;13.360;2023-04-05T15:00:42;2.90;;;2.07;;
3755;SDS011;1893;52.526;13.360;2023-04-05T15:03:08;4.43;;;2.77;;
3755;SDS011;1893;52.526;13.360;2023-04-05T15:05:34;3.40;;;2.50;;
3755;SDS011;1893;52.526;13.360;2023-04-05T15:08:00;2.57;;;2.37;;
3755;SDS011;1893;52.526;13.360;2023-04-05T15:10:26;5.43;;;2.40;;
3755;SDS011;1893;52.526;13.360;2023-04-05T15:12:52;5.87;;;2.70;;
3755;SDS011;1893;52.526;13.360;2023-04-05T15:15:17;3.67;;;2.40;;
3755;SDS011;1893;52.526;13.360;2023-04-05T15:17:43;4.43;;;2.80;;
3755;SDS011;1893;52.526;13.360;2023-04-05T15:20:09;7.60;;;2.70;;
3755;SDS011;1893;52.526;13.360;2023-04-05T15:22:35;6.37;;;2.90;;
3755;SDS011;1893;52.526;13.360;2023-04-05T15:25:04;3.60;;;2.43;;
3755;SDS011;1893;52.526;13.360;2023-04-05T15:27:31;7.37;;;3.00;;
3755;SDS011;1893;52.526;13.360;2023-04-05T15:29:57;4.07;;;2.70;;
3755;SDS011;1893;52.526;13.360;2023-04-05T15:32:22;8.23;;;3.27;;
3755;SDS011;1893;52.526;13.360;2023-04-05T15:34:48;3.03;;;2.33;;
3755;SDS011;1893;52.526;13.360;2023-04-05T15:37:14;3.10;;;2.73;;
3755;SDS011;1893;52.526;13.360;2023-04-05T15:39:40;4.40;;;2.80;;
3755;SDS011;1893;52.526;13.360;2023-04-05T15:42:06;5.90;;;2.40;;
3755;SDS011;1893;52.526;13.360;2023-04-05T15:44:31;18.20;;;11.23;;